Terminal Aerodrome Forecast
Issued by NWS Melbourne, FL

Home | Current Version | Previous Version | Text Only | Print | Product List | Glossary On
Versions: 1 2 3 4 5 6 7 8 9 10 11 12 13 14 15 16 17 18 19 20 21 22 23 24 25 26 27 28 29 30 31 32 33 34 35 36
000
FTUS42 KMLB 240816 AAB
TAFDAB
TAF AMD
KDAB 240816Z 2408/2506 17015G26KT P6SM BKN025 BKN150 WS015/15032KT
     FM240930 18012G20KT P6SM VCSH BKN030 BKN080 WS015/18040KT
      TEMPO 2411/2414 VRB20G34KT 3SM TSRA BKN025CB BKN040
     FM241500 26012KT P6SM SCT030 BKN050
     FM242300 26006KT P6SM FEW020=

USA.gov is the U.S. government's official web portal to all federal, state and local government web resources and services.